createdAt,value
2019-01-21T00:01:03.660Z,17.70
2019-01-21T00:03:32.930Z,18.23
2019-01-21T00:06:02.862Z,18.20
2019-01-21T00:08:32.566Z,18.50
2019-01-21T00:11:01.909Z,17.47
2019-01-21T00:13:31.561Z,17.70
2019-01-21T00:16:00.865Z,17.13
2019-01-21T00:18:30.907Z,17.60
2019-01-21T00:21:00.931Z,17.50
2019-01-21T00:23:30.308Z,17.53
2019-01-21T00:25:59.569Z,17.53
2019-01-21T00:28:28.879Z,17.37
2019-01-21T00:30:58.233Z,18.60
2019-01-21T00:33:27.565Z,17.47
2019-01-21T00:35:56.839Z,18.93
2019-01-21T00:38:29.702Z,19.27
2019-01-21T00:40:59.338Z,18.07
2019-01-21T00:43:28.813Z,17.80
2019-01-21T00:45:58.141Z,18.10
2019-01-21T00:48:27.486Z,18.20
2019-01-21T00:50:57.155Z,18.20
2019-01-21T00:53:26.480Z,18.60
2019-01-21T00:55:55.838Z,19.73
2019-01-21T00:58:25.672Z,19.73
2019-01-21T01:00:54.919Z,19.77
2019-01-21T01:03:24.223Z,19.77
2019-01-21T01:05:53.948Z,19.63
2019-01-21T01:08:23.430Z,19.27
2019-01-21T01:10:53.661Z,19.60
2019-01-21T01:13:25.372Z,19.60
2019-01-21T01:15:55.095Z,20.23
2019-01-21T01:18:24.376Z,19.80
2019-01-21T01:20:53.660Z,20.73
2019-01-21T01:23:23.165Z,20.67
2019-01-21T01:25:52.616Z,20.60
2019-01-21T01:28:22.412Z,21.17
2019-01-21T01:30:51.719Z,21.63
2019-01-21T01:33:21.005Z,20.40
2019-01-21T01:35:51.002Z,22.53
2019-01-21T01:38:20.956Z,23.30
2019-01-21T01:40:50.792Z,22.63
2019-01-21T01:43:20.101Z,21.17
2019-01-21T01:45:50.150Z,22.93
2019-01-21T01:48:19.896Z,23.50
2019-01-21T01:50:49.520Z,20.93
2019-01-21T01:53:19.018Z,21.90
2019-01-21T01:55:48.674Z,21.33
2019-01-21T01:58:18.030Z,21.97
2019-01-21T02:00:47.526Z,22.40
2019-01-21T02:03:17.762Z,22.97
2019-01-21T02:05:47.120Z,21.20
2019-01-21T02:08:17.088Z,20.50
2019-01-21T02:10:46.430Z,20.40
2019-01-21T02:13:16.094Z,20.40
2019-01-21T02:15:45.404Z,20.93
2019-01-21T02:18:15.009Z,19.60
2019-01-21T02:20:47.744Z,19.97
2019-01-21T02:23:24.230Z,20.80
2019-01-21T02:26:04.626Z,20.00
2019-01-21T02:29:10.108Z,20.17
2019-01-21T02:32:16.661Z,18.83
2019-01-21T02:35:25.882Z,19.10
2019-01-21T02:38:25.925Z,18.90
2019-01-21T02:41:19.232Z,19.40
2019-01-21T02:44:13.303Z,19.73
2019-01-21T02:46:50.912Z,18.50
2019-01-21T02:49:56.370Z,18.30
2019-01-21T02:53:07.350Z,17.67
2019-01-21T02:56:29.556Z,19.60
2019-01-21T02:59:51.427Z,18.70
2019-01-21T03:02:59.331Z,18.10
2019-01-21T03:05:57.409Z,18.27
2019-01-21T03:09:12.593Z,17.60
2019-01-21T03:12:18.500Z,18.83
2019-01-21T03:15:26.497Z,18.17
2019-01-21T03:18:39.471Z,18.20
2019-01-21T03:21:45.869Z,18.40
2019-01-21T03:25:04.515Z,17.37
2019-01-21T03:28:24.626Z,18.47
2019-01-21T03:31:34.577Z,18.90
2019-01-21T03:34:51.264Z,18.13
2019-01-21T03:37:48.649Z,18.23
2019-01-21T03:40:48.031Z,18.00
2019-01-21T03:44:00.405Z,19.57
2019-01-21T03:46:51.405Z,18.67
2019-01-21T03:49:50.142Z,18.83
2019-01-21T03:52:40.012Z,18.30
2019-01-21T03:55:14.308Z,19.27
2019-01-21T03:58:08.924Z,20.03
2019-01-21T04:01:28.512Z,19.67
2019-01-21T04:04:25.553Z,20.90
2019-01-21T04:07:00.934Z,23.70
2019-01-21T04:10:20.665Z,20.20
2019-01-21T04:13:15.739Z,20.63
2019-01-21T04:16:29.991Z,20.80
2019-01-21T04:19:31.530Z,20.77
2019-01-21T04:22:52.448Z,20.77
2019-01-21T04:25:49.396Z,20.23
2019-01-21T04:28:56.249Z,21.67
2019-01-21T04:31:51.627Z,20.77
2019-01-21T04:34:57.391Z,21.07
2019-01-21T04:38:14.493Z,20.00
2019-01-21T04:41:14.184Z,20.37
2019-01-21T04:44:22.230Z,20.27
2019-01-21T04:47:39.735Z,20.30
2019-01-21T04:50:39.203Z,20.03
2019-01-21T04:53:48.969Z,19.37
2019-01-21T04:56:46.288Z,20.93
2019-01-21T04:59:45.098Z,21.97
2019-01-21T05:02:58.525Z,20.83
2019-01-21T05:06:13.896Z,21.60
2019-01-21T05:08:58.250Z,22.10
2019-01-21T05:11:45.805Z,22.07
2019-01-21T05:14:51.937Z,21.77
2019-01-21T05:18:05.202Z,21.77
2019-01-21T05:21:43.096Z,21.97
2019-01-21T05:24:42.958Z,21.93
2019-01-21T05:27:30.410Z,23.30
2019-01-21T05:30:47.127Z,22.60
2019-01-21T05:33:52.345Z,24.13
2019-01-21T05:37:27.365Z,22.40
2019-01-21T05:40:38.924Z,21.47
2019-01-21T05:44:10.609Z,22.40
2019-01-21T05:47:27.415Z,22.33
2019-01-21T05:50:28.625Z,21.27
2019-01-21T05:53:43.825Z,20.60
2019-01-21T05:56:45.800Z,20.07
2019-01-21T05:59:41.944Z,20.73
2019-01-21T06:02:39.060Z,21.27
2019-01-21T06:05:55.831Z,21.00
2019-01-21T06:08:54.672Z,21.07
2019-01-21T06:11:35.473Z,20.63
2019-01-21T06:14:46.182Z,21.33
2019-01-21T06:17:47.709Z,21.30
2019-01-21T06:20:52.750Z,23.50
2019-01-21T06:23:30.242Z,25.03
2019-01-21T06:26:30.290Z,25.17
2019-01-21T06:29:49.623Z,26.67
2019-01-21T06:33:04.340Z,30.83
2019-01-21T06:35:48.652Z,33.50
2019-01-21T06:38:54.513Z,36.53
2019-01-21T06:42:07.093Z,26.27
2019-01-21T06:45:03.261Z,27.57
2019-01-21T06:48:32.174Z,25.63
2019-01-21T06:51:36.704Z,25.47
2019-01-21T06:54:41.897Z,27.20
2019-01-21T06:57:37.993Z,24.30
2019-01-21T07:00:42.387Z,25.00
2019-01-21T07:03:44.280Z,22.87
2019-01-21T07:06:46.976Z,24.53
2019-01-21T07:09:54.846Z,23.53
2019-01-21T07:13:01.949Z,23.17
2019-01-21T07:16:05.436Z,22.53
2019-01-21T07:19:17.101Z,24.53
2019-01-21T07:22:42.377Z,24.03
2019-01-21T07:26:02.137Z,23.77
2019-01-21T07:29:24.830Z,24.53
2019-01-21T07:32:14.045Z,26.53
2019-01-21T07:35:26.173Z,26.13
2019-01-21T07:38:31.302Z,25.87
2019-01-21T07:41:52.416Z,27.60
2019-01-21T07:44:49.657Z,25.50
2019-01-21T07:47:46.965Z,26.67
2019-01-21T07:50:47.115Z,25.77
2019-01-21T07:53:55.313Z,26.67
2019-01-21T07:56:54.621Z,24.83
2019-01-21T08:00:13.863Z,28.40
2019-01-21T08:02:58.478Z,28.40
2019-01-21T08:06:14.968Z,27.67
2019-01-21T08:09:22.355Z,28.10
2019-01-21T08:12:28.967Z,28.53
2019-01-21T08:15:21.814Z,28.97
2019-01-21T08:18:33.390Z,28.57
2019-01-21T08:21:44.376Z,27.40
2019-01-21T08:24:32.618Z,28.20
2019-01-21T08:27:46.270Z,28.90
2019-01-21T08:30:52.680Z,29.43
2019-01-21T08:33:36.230Z,30.47
2019-01-21T08:36:44.434Z,30.57
2019-01-21T08:39:50.571Z,32.43
2019-01-21T08:43:19.354Z,32.63
2019-01-21T08:46:41.890Z,31.37
2019-01-21T08:50:04.560Z,31.40
2019-01-21T08:53:06.590Z,31.37
2019-01-21T08:56:29.264Z,28.57
2019-01-21T08:59:29.449Z,29.13
2019-01-21T09:02:35.136Z,30.43
2019-01-21T09:05:45.494Z,28.63
2019-01-21T09:08:56.594Z,27.43
2019-01-21T09:11:58.463Z,29.00
2019-01-21T09:15:17.086Z,28.77
2019-01-21T09:18:14.304Z,28.37
2019-01-21T09:21:19.274Z,31.93
2019-01-21T09:24:04.382Z,31.30
2019-01-21T09:27:09.756Z,30.90
2019-01-21T09:30:07.758Z,29.53
2019-01-21T09:33:00.266Z,30.27
2019-01-21T09:35:59.561Z,27.30
2019-01-21T09:39:27.226Z,27.33
2019-01-21T09:42:15.427Z,26.43
2019-01-21T09:45:09.325Z,28.20
2019-01-21T09:47:37.300Z,27.87
2019-01-21T09:50:07.062Z,30.60
2019-01-21T09:52:37.074Z,31.57
2019-01-21T09:55:07.486Z,30.87
2019-01-21T09:57:38.324Z,28.30
2019-01-21T10:00:14.687Z,27.90
2019-01-21T10:02:48.753Z,28.37
2019-01-21T10:05:19.074Z,25.87
2019-01-21T10:08:10.743Z,26.63
2019-01-21T10:11:15.967Z,26.83
2019-01-21T10:14:32.389Z,26.53
2019-01-21T10:17:12.031Z,26.27
2019-01-21T10:20:31.434Z,25.90
2019-01-21T10:23:32.706Z,26.23
2019-01-21T10:26:31.787Z,27.23
2019-01-21T10:29:48.301Z,25.57
2019-01-21T10:33:10.693Z,24.70
2019-01-21T10:36:20.693Z,25.40
2019-01-21T10:39:38.905Z,25.97
2019-01-21T10:42:27.011Z,25.03
2019-01-21T10:45:21.665Z,25.23
2019-01-21T10:48:25.382Z,25.60
2019-01-21T10:51:18.024Z,22.37
2019-01-21T10:54:25.788Z,24.57
2019-01-21T10:57:48.474Z,25.00
2019-01-21T11:01:20.712Z,35.20
2019-01-21T11:04:26.845Z,43.37
2019-01-21T11:07:08.246Z,33.83
2019-01-21T11:09:53.721Z,23.50
2019-01-21T11:13:05.483Z,22.87
2019-01-21T11:15:59.950Z,27.57
2019-01-21T11:19:00.338Z,57.37
2019-01-21T11:22:11.223Z,24.23
2019-01-21T11:25:04.319Z,22.00
2019-01-21T11:28:10.988Z,20.47
2019-01-21T11:31:11.943Z,19.77
2019-01-21T11:34:32.744Z,18.10
2019-01-21T11:37:37.882Z,20.43
2019-01-21T11:40:57.419Z,24.13
2019-01-21T11:44:02.320Z,19.27
2019-01-21T11:47:13.465Z,20.47
2019-01-21T11:50:10.837Z,23.27
2019-01-21T11:53:23.036Z,53.67
2019-01-21T11:56:33.827Z,49.93
2019-01-21T11:59:43.153Z,20.00
2019-01-21T12:02:52.738Z,18.40
2019-01-21T12:05:52.436Z,23.30
2019-01-21T12:09:04.429Z,18.70
2019-01-21T12:11:44.371Z,18.20
2019-01-21T12:14:22.923Z,17.20
2019-01-21T12:17:19.729Z,18.73
2019-01-21T12:20:27.326Z,16.83
2019-01-21T12:23:33.454Z,16.80
2019-01-21T12:26:44.367Z,16.20
2019-01-21T12:29:36.485Z,16.50
2019-01-21T12:32:58.949Z,17.20
2019-01-21T12:35:59.531Z,17.00
2019-01-21T12:39:05.446Z,17.27
2019-01-21T12:42:19.072Z,16.20
2019-01-21T12:45:30.634Z,15.67
2019-01-21T12:48:27.013Z,15.90
2019-01-21T12:51:46.806Z,14.67
2019-01-21T12:54:41.957Z,16.77
2019-01-21T12:58:13.977Z,15.47
2019-01-21T13:01:26.503Z,14.90
2019-01-21T13:04:21.468Z,14.53
2019-01-21T13:07:01.318Z,15.60
2019-01-21T13:10:26.905Z,14.67
2019-01-21T13:13:36.857Z,15.13
2019-01-21T13:16:19.694Z,13.83
2019-01-21T13:19:17.646Z,14.87
2019-01-21T13:22:39.129Z,16.30
2019-01-21T13:25:38.680Z,13.50
2019-01-21T13:28:49.189Z,14.73
2019-01-21T13:32:13.663Z,14.43
2019-01-21T13:35:22.527Z,13.10
2019-01-21T13:38:19.725Z,16.13
2019-01-21T13:41:17.733Z,15.83
2019-01-21T13:44:27.980Z,14.77
2019-01-21T13:47:40.843Z,12.33
2019-01-21T13:50:24.446Z,13.53
2019-01-21T13:53:22.666Z,12.83
2019-01-21T13:56:23.855Z,13.13
2019-01-21T13:59:21.586Z,12.90
2019-01-21T14:02:16.471Z,12.77
2019-01-21T14:05:15.972Z,13.30
2019-01-21T14:08:11.659Z,12.07
2019-01-21T14:11:37.299Z,11.97
2019-01-21T14:14:33.552Z,12.63
2019-01-21T14:17:35.786Z,12.63
2019-01-21T14:20:35.637Z,14.33
2019-01-21T14:23:25.372Z,14.13
2019-01-21T14:26:33.122Z,14.50
2019-01-21T14:29:34.258Z,16.33
2019-01-21T14:32:39.817Z,16.60
2019-01-21T14:35:47.033Z,20.13
2019-01-21T14:38:52.717Z,19.97
2019-01-21T14:41:41.385Z,15.40
2019-01-21T14:44:50.481Z,15.07
2019-01-21T14:47:57.817Z,16.93
2019-01-21T14:50:53.114Z,15.77
2019-01-21T14:54:05.296Z,15.27
2019-01-21T14:57:12.458Z,15.50
2019-01-21T15:00:13.168Z,16.03
2019-01-21T15:03:23.782Z,15.90
2019-01-21T15:06:26.557Z,16.50
2019-01-21T15:09:17.019Z,17.03
2019-01-21T15:12:26.448Z,17.23
2019-01-21T15:15:32.024Z,17.40
2019-01-21T15:18:24.394Z,17.00
2019-01-21T15:21:18.266Z,19.27
2019-01-21T15:24:38.105Z,18.87
2019-01-21T15:27:40.778Z,17.77
2019-01-21T15:30:42.686Z,16.50
2019-01-21T15:34:02.026Z,16.10
2019-01-21T15:37:14.093Z,16.67
2019-01-21T15:40:35.703Z,16.43
2019-01-21T15:43:36.198Z,16.33
2019-01-21T15:46:29.551Z,15.63
2019-01-21T15:49:27.046Z,16.00
2019-01-21T15:52:23.619Z,16.00
2019-01-21T15:55:37.477Z,16.00
2019-01-21T15:58:39.072Z,16.07
2019-01-21T16:01:54.736Z,16.50
2019-01-21T16:05:10.932Z,16.93
2019-01-21T16:08:23.328Z,17.70
2019-01-21T16:11:26.663Z,16.33
2019-01-21T16:14:03.814Z,17.43
2019-01-21T16:17:23.398Z,17.07
2019-01-21T16:20:01.037Z,16.77
2019-01-21T16:22:47.918Z,17.70
2019-01-21T16:25:42.061Z,16.67
2019-01-21T16:29:00.384Z,16.40
2019-01-21T16:31:41.000Z,15.40
2019-01-21T16:34:42.856Z,15.83
2019-01-21T16:37:37.316Z,16.20
2019-01-21T16:41:06.454Z,17.13
2019-01-21T16:43:35.765Z,16.60
2019-01-21T16:46:05.037Z,16.53
2019-01-21T16:48:34.322Z,16.53
2019-01-21T16:51:03.692Z,15.63
2019-01-21T16:53:33.002Z,16.27
2019-01-21T16:56:03.091Z,15.40
2019-01-21T16:58:32.486Z,15.80
2019-01-21T17:01:02.028Z,16.03
2019-01-21T17:03:31.439Z,15.97
2019-01-21T17:06:00.832Z,15.80
2019-01-21T17:08:30.485Z,17.07
2019-01-21T17:11:00.145Z,17.00
2019-01-21T17:13:29.554Z,17.30
2019-01-21T17:15:59.149Z,17.70
2019-01-21T17:18:28.741Z,17.87
2019-01-21T17:20:58.056Z,17.23
2019-01-21T17:23:27.353Z,17.47
2019-01-21T17:25:56.755Z,18.60
2019-01-21T17:28:26.146Z,17.70
2019-01-21T17:30:58.403Z,17.00
2019-01-21T17:33:28.885Z,17.07
2019-01-21T17:35:58.362Z,17.77
2019-01-21T17:38:27.710Z,17.37
2019-01-21T17:40:57.006Z,18.47
2019-01-21T17:43:26.770Z,18.23
2019-01-21T17:45:56.149Z,18.47
2019-01-21T17:48:25.623Z,18.07
2019-01-21T17:50:54.968Z,18.00
2019-01-21T17:53:24.461Z,17.70
2019-01-21T17:55:54.158Z,18.37
2019-01-21T17:58:23.506Z,18.67
2019-01-21T18:00:55.217Z,18.43
2019-01-21T18:03:24.475Z,18.67
2019-01-21T18:05:53.842Z,19.87
2019-01-21T18:08:23.141Z,19.43
2019-01-21T18:10:53.129Z,19.87
2019-01-21T18:13:22.830Z,19.90
2019-01-21T18:15:52.511Z,19.90
2019-01-21T18:18:21.881Z,21.27
2019-01-21T18:20:54.195Z,22.07
2019-01-21T18:23:23.562Z,22.30
2019-01-21T18:25:52.904Z,22.47
2019-01-21T18:28:22.302Z,22.10
2019-01-21T18:30:52.375Z,22.20
2019-01-21T18:33:21.967Z,21.80
2019-01-21T18:35:51.329Z,22.20
2019-01-21T18:38:20.560Z,22.50
2019-01-21T18:40:53.141Z,22.10
2019-01-21T18:43:22.605Z,22.27
2019-01-21T18:45:52.829Z,22.23
2019-01-21T18:48:22.139Z,24.60
2019-01-21T18:50:54.620Z,23.13
2019-01-21T18:53:23.914Z,22.00
2019-01-21T18:55:53.412Z,22.87
2019-01-21T18:58:22.740Z,23.57
2019-01-21T19:00:52.433Z,22.97
2019-01-21T19:03:21.804Z,22.40
2019-01-21T19:05:51.553Z,23.90
2019-01-21T19:08:20.922Z,22.80
2019-01-21T19:10:50.298Z,23.20
2019-01-21T19:13:19.993Z,23.27
2019-01-21T19:15:49.913Z,24.20
2019-01-21T19:18:19.168Z,22.93
2019-01-21T19:20:48.632Z,22.67
2019-01-21T19:23:18.048Z,24.43
2019-01-21T19:25:47.351Z,24.90
2019-01-21T19:28:17.078Z,24.67
2019-01-21T19:30:46.788Z,28.20
2019-01-21T19:33:16.131Z,27.10
2019-01-21T19:35:45.591Z,25.03
2019-01-21T19:38:15.332Z,24.50
2019-01-21T19:40:44.713Z,23.77
2019-01-21T19:43:14.266Z,24.70
2019-01-21T19:45:44.066Z,24.63
2019-01-21T19:48:13.755Z,25.47
2019-01-21T19:50:43.114Z,23.73
2019-01-21T19:53:15.738Z,23.73
2019-01-21T19:55:45.537Z,25.17
2019-01-21T19:58:14.842Z,24.03
2019-01-21T20:00:47.042Z,23.73
2019-01-21T20:03:16.393Z,24.70
2019-01-21T20:05:46.069Z,24.23
2019-01-21T20:08:18.935Z,25.13
2019-01-21T20:10:48.288Z,23.80
2019-01-21T20:13:20.682Z,24.53
2019-01-21T20:15:51.278Z,26.20
2019-01-21T20:18:20.889Z,26.37
2019-01-21T20:20:50.735Z,27.97
2019-01-21T20:23:21.550Z,30.03
2019-01-21T20:25:50.817Z,26.83
2019-01-21T20:28:20.202Z,24.90
2019-01-21T20:30:51.973Z,25.77
2019-01-21T20:33:21.428Z,26.13
2019-01-21T20:35:50.705Z,25.57
2019-01-21T20:38:20.197Z,26.43
2019-01-21T20:40:49.590Z,27.13
2019-01-21T20:43:19.250Z,27.13
2019-01-21T20:45:48.624Z,27.60
2019-01-21T20:48:18.013Z,27.10
2019-01-21T20:50:47.322Z,28.10
2019-01-21T20:53:18.009Z,28.20
2019-01-21T20:55:47.372Z,29.30
2019-01-21T20:58:16.824Z,27.33
2019-01-21T21:00:46.242Z,27.43
2019-01-21T21:03:16.121Z,27.00
2019-01-21T21:05:46.019Z,28.60
2019-01-21T21:08:15.908Z,28.30
2019-01-21T21:10:45.639Z,27.33
2019-01-21T21:13:15.873Z,27.87
2019-01-21T21:15:46.328Z,27.47
2019-01-21T21:18:16.227Z,27.97
2019-01-21T21:20:46.611Z,27.73
2019-01-21T21:23:16.390Z,29.60
2019-01-21T21:25:46.191Z,28.83
2019-01-21T21:28:16.026Z,27.57
2019-01-21T21:30:45.793Z,28.17
2019-01-21T21:33:15.346Z,28.10
2019-01-21T21:35:44.990Z,28.30
2019-01-21T21:38:14.792Z,28.57
2019-01-21T21:40:44.438Z,28.20
2019-01-21T21:43:14.119Z,28.37
2019-01-21T21:45:43.603Z,26.33
2019-01-21T21:48:13.266Z,28.47
2019-01-21T21:50:42.818Z,27.80
2019-01-21T21:53:12.372Z,30.23
2019-01-21T21:55:42.262Z,29.93
2019-01-21T21:58:11.894Z,29.20
2019-01-21T22:00:41.375Z,28.60
2019-01-21T22:03:10.910Z,29.17
2019-01-21T22:05:40.352Z,31.30
2019-01-21T22:08:09.821Z,31.97
2019-01-21T22:10:39.841Z,31.40
2019-01-21T22:13:09.404Z,30.80
2019-01-21T22:15:39.009Z,31.40
2019-01-21T22:18:08.873Z,31.23
2019-01-21T22:20:38.449Z,30.93
2019-01-21T22:23:08.408Z,32.00
2019-01-21T22:25:37.900Z,30.83
2019-01-21T22:28:07.160Z,31.50
2019-01-21T22:30:36.466Z,30.87
2019-01-21T22:33:05.886Z,31.67
2019-01-21T22:35:35.575Z,31.30
2019-01-21T22:38:06.686Z,30.63
2019-01-21T22:40:36.898Z,30.50
2019-01-21T22:43:06.245Z,30.13
2019-01-21T22:45:35.611Z,30.10
2019-01-21T22:48:05.222Z,30.90
2019-01-21T22:50:34.590Z,30.83
2019-01-21T22:53:04.282Z,30.37
2019-01-21T22:55:33.625Z,29.77
2019-01-21T22:58:02.935Z,30.00
2019-01-21T23:00:45.982Z,31.90
2019-01-21T23:03:16.041Z,30.90
2019-01-21T23:05:45.412Z,30.37
2019-01-21T23:08:14.990Z,30.93
2019-01-21T23:10:44.414Z,31.70
2019-01-21T23:13:13.762Z,29.87
2019-01-21T23:15:43.171Z,31.30
2019-01-21T23:18:12.450Z,30.43
2019-01-21T23:20:41.917Z,30.77
2019-01-21T23:23:11.715Z,31.80
2019-01-21T23:25:41.733Z,30.97
2019-01-21T23:28:11.538Z,31.87
2019-01-21T23:30:40.934Z,31.87
2019-01-21T23:33:10.229Z,31.17
2019-01-21T23:35:39.875Z,30.27
2019-01-21T23:38:09.259Z,30.07
2019-01-21T23:40:38.559Z,30.80
2019-01-21T23:43:08.178Z,30.57
2019-01-21T23:45:37.468Z,31.20
2019-01-21T23:48:07.138Z,30.13
2019-01-21T23:50:36.443Z,30.73
2019-01-21T23:53:06.548Z,30.60
2019-01-21T23:55:36.211Z,30.90
2019-01-21T23:58:06.179Z,30.83
